Time;durP1;ratioP1;P1;durP2;ratioP2;P2;SDS_P1;SDS_P2;PMS_P1;PMS_P2;Temp;Humidity;BMP_temperature;BMP_pressure;BME280_temperature;BME280_humidity;BME280_pressure;Samples;Min_cycle;Max_cycle;Signal;HPM_P1;HPM_P2
2022/04/28 00:00:47;;;;;;;4.40;1.60;;;8.50;68.50;;;;;;5078968;28;20073;-60
2022/04/28 00:03:13;;;;;;;5.32;1.70;;;8.50;68.50;;;;;;5083105;28;20036;-60
2022/04/28 00:05:39;;;;;;;4.47;2.13;;;8.50;68.60;;;;;;5083259;28;20385;-59
2022/04/28 00:08:05;;;;;;;4.63;1.90;;;8.40;68.60;;;;;;5090041;28;20027;-60
2022/04/28 00:10:31;;;;;;;6.82;2.53;;;8.30;69.00;;;;;;5080650;28;20107;-60
2022/04/28 00:12:57;;;;;;;5.05;1.63;;;8.30;69.20;;;;;;5080403;28;20085;-60
2022/04/28 00:15:23;;;;;;;3.53;1.60;;;8.30;69.30;;;;;;5065118;28;20036;-60
2022/04/28 00:17:48;;;;;;;6.78;1.90;;;8.30;69.40;;;;;;5075727;28;20057;-60
2022/04/28 00:20:14;;;;;;;4.15;1.83;;;8.20;69.50;;;;;;5067698;28;20040;-60
2022/04/28 00:22:40;;;;;;;2.92;1.67;;;8.10;69.60;;;;;;5061441;28;20021;-60
2022/04/28 00:25:06;;;;;;;4.22;1.65;;;8.10;69.80;;;;;;5068374;28;20031;-60
2022/04/28 00:27:33;;;;;;;4.10;2.15;;;8.10;69.90;;;;;;5079014;28;20028;-60
2022/04/28 00:29:59;;;;;;;3.22;1.90;;;8.00;70.10;;;;;;5074472;28;20640;-60
2022/04/28 00:32:25;;;;;;;3.50;1.80;;;8.00;70.10;;;;;;5079615;28;20077;-60
2022/04/28 00:34:51;;;;;;;2.60;1.58;;;8.00;70.20;;;;;;5077937;28;20498;-59
2022/04/28 00:37:18;;;;;;;2.63;1.65;;;8.00;70.30;;;;;;5071199;28;20081;-59
2022/04/28 00:39:44;;;;;;;4.40;1.77;;;7.90;70.30;;;;;;5065616;28;20017;-60
2022/04/28 00:42:12;;;;;;;2.95;1.67;;;7.90;70.40;;;;;;5079797;28;20048;-60
2022/04/28 00:44:38;;;;;;;4.85;1.88;;;7.90;70.50;;;;;;5061740;28;20048;-60
2022/04/28 00:47:04;;;;;;;5.80;1.98;;;7.80;70.50;;;;;;5072542;28;20071;-60
2022/04/28 00:52:14;;;;;;;5.18;1.70;;;7.80;70.80;;;;;;5057078;28;20071;-60
2022/04/28 00:54:41;;;;;;;4.43;1.95;;;7.70;70.90;;;;;;5066496;28;20056;-59
2022/04/28 00:57:06;;;;;;;2.97;1.70;;;7.70;71.00;;;;;;5074103;28;20039;-59
2022/04/28 00:59:33;;;;;;;2.78;1.55;;;7.60;71.20;;;;;;5069522;28;20024;-60
2022/04/28 01:01:58;;;;;;;2.58;1.70;;;7.60;71.40;;;;;;5081308;28;20120;-59
2022/04/28 01:04:24;;;;;;;5.30;2.05;;;7.60;71.50;;;;;;5086633;28;20103;-59
2022/04/28 01:06:52;;;;;;;4.10;2.00;;;7.50;71.40;;;;;;5066926;28;20472;-60
2022/04/28 01:09:17;;;;;;;4.35;1.90;;;7.50;71.60;;;;;;5074094;28;20104;-59
2022/04/28 01:11:44;;;;;;;3.58;1.92;;;7.40;71.70;;;;;;5067396;28;20109;-60
2022/04/28 01:14:09;;;;;;;2.80;1.70;;;7.40;71.80;;;;;;5068451;28;20477;-60
2022/04/28 01:16:35;;;;;;;4.85;2.25;;;7.40;71.90;;;;;;5077626;28;20031;-60
2022/04/28 01:19:00;;;;;;;3.70;1.70;;;7.40;72.00;;;;;;5070879;28;20047;-60
2022/04/28 01:21:26;;;;;;;2.53;1.95;;;7.30;72.10;;;;;;5088636;28;20486;-60
2022/04/28 01:23:51;;;;;;;4.72;2.15;;;7.30;72.10;;;;;;5073270;28;20035;-59
2022/04/28 01:26:18;;;;;;;4.38;2.03;;;7.20;72.30;;;;;;5091513;28;20027;-59
2022/04/28 01:28:43;;;;;;;4.03;2.83;;;7.20;72.50;;;;;;5074990;28;20075;-60
2022/04/28 01:31:09;;;;;;;5.68;2.40;;;7.10;72.70;;;;;;5066536;28;20029;-63
2022/04/28 01:33:34;;;;;;;4.82;1.90;;;7.10;72.90;;;;;;5084344;28;20028;-60
2022/04/28 01:36:00;;;;;;;4.30;2.10;;;7.00;73.00;;;;;;5074593;28;20035;-59
2022/04/28 01:38:26;;;;;;;4.30;2.70;;;7.00;73.20;;;;;;5092970;28;20028;-60
2022/04/28 01:40:52;;;;;;;4.85;2.33;;;6.90;73.30;;;;;;5074856;28;20099;-62
2022/04/28 01:43:17;;;;;;;4.07;2.22;;;6.90;73.50;;;;;;5073168;28;20036;-59
2022/04/28 01:45:43;;;;;;;6.57;2.65;;;6.90;73.80;;;;;;5065984;28;20021;-59
2022/04/28 01:48:09;;;;;;;4.35;2.35;;;6.90;73.80;;;;;;5082454;28;20025;-60
2022/04/28 01:50:34;;;;;;;4.35;1.88;;;6.90;73.90;;;;;;5075848;28;20523;-59
2022/04/28 01:55:44;;;;;;;3.20;2.25;;;6.80;74.00;;;;;;5063799;28;20040;-61
2022/04/28 01:58:10;;;;;;;5.53;2.90;;;6.80;74.10;;;;;;5077519;28;20051;-60
2022/04/28 02:00:35;;;;;;;4.00;2.25;;;6.80;74.20;;;;;;5073349;28;20493;-60
2022/04/28 02:03:01;;;;;;;7.82;2.35;;;6.80;74.30;;;;;;5075551;28;20028;-60
2022/04/28 02:05:27;;;;;;;5.13;2.25;;;6.70;74.40;;;;;;5074433;28;20025;-60
2022/04/28 02:07:52;;;;;;;3.20;2.30;;;6.70;74.50;;;;;;5076612;28;20024;-60
2022/04/28 02:10:18;;;;;;;3.90;2.35;;;6.70;74.60;;;;;;5085540;28;20024;-60
2022/04/28 02:12:44;;;;;;;3.90;2.35;;;6.70;74.70;;;;;;5070583;28;20064;-60
2022/04/28 02:15:09;;;;;;;4.28;2.42;;;6.60;74.80;;;;;;5064189;28;20025;-60
2022/04/28 02:17:37;;;;;;;5.18;3.03;;;6.50;74.90;;;;;;5077836;28;20144;-59
2022/04/28 02:20:08;;;;;;;6.80;2.60;;;6.50;75.10;;;;;;5072591;28;20031;-60
2022/04/28 02:22:34;;;;;;;3.60;2.20;;;6.40;75.30;;;;;;5070317;28;20064;-60
2022/04/28 02:25:00;;;;;;;4.65;2.53;;;6.40;75.50;;;;;;5064727;28;20065;-59
2022/04/28 02:27:27;;;;;;;4.47;2.63;;;6.30;75.60;;;;;;5065114;28;20384;-59
2022/04/28 02:29:52;;;;;;;4.05;2.53;;;6.30;75.80;;;;;;5073092;28;20137;-59
2022/04/28 02:32:18;;;;;;;3.40;2.20;;;6.30;76.00;;;;;;5076346;28;20035;-60
2022/04/28 02:34:43;;;;;;;5.18;2.60;;;6.30;76.10;;;;;;5073466;28;20510;-60
2022/04/28 02:37:09;;;;;;;4.93;2.55;;;6.30;76.20;;;;;;5079332;28;20038;-59
2022/04/28 02:39:35;;;;;;;6.55;2.70;;;6.20;76.20;;;;;;5072653;28;20030;-60
2022/04/28 02:42:01;;;;;;;4.38;2.70;;;6.20;76.30;;;;;;5075101;28;20028;-59
2022/04/28 02:44:26;;;;;;;4.97;3.30;;;6.20;76.50;;;;;;5069043;28;20017;-59
2022/04/28 02:46:52;;;;;;;6.28;3.00;;;6.10;76.60;;;;;;5072024;28;20479;-59
2022/04/28 02:49:17;;;;;;;4.85;3.00;;;6.10;76.70;;;;;;5082769;28;20440;-59
2022/04/28 02:51:44;;;;;;;6.80;3.60;;;6.10;76.80;;;;;;5069234;28;20035;-59
2022/04/28 02:54:10;;;;;;;4.45;2.55;;;6.10;76.90;;;;;;5086546;28;20031;-59
2022/04/28 02:56:36;;;;;;;4.78;3.03;;;6.10;77.00;;;;;;5066707;28;20019;-59
2022/04/28 02:59:01;;;;;;;5.95;3.03;;;6.10;77.10;;;;;;5069528;28;20028;-59
2022/04/28 03:01:27;;;;;;;4.28;2.67;;;6.10;77.20;;;;;;5074270;28;20028;-59
2022/04/28 03:03:54;;;;;;;6.95;3.30;;;6.10;77.30;;;;;;5077249;28;20028;-60
2022/04/28 03:11:51;;;;;;;7.05;3.25;;;6.00;77.60;;;;;;5075771;28;20407;-59
2022/04/28 03:14:16;;;;;;;5.68;3.30;;;6.00;77.80;;;;;;5078336;28;20032;-60
2022/04/28 03:16:42;;;;;;;6.38;3.08;;;6.00;78.00;;;;;;5076393;28;20024;-59
2022/04/28 03:19:09;;;;;;;4.32;3.20;;;6.00;78.00;;;;;;5078051;28;20044;-59
2022/04/28 03:21:34;;;;;;;6.85;3.35;;;6.00;78.10;;;;;;5080245;28;20025;-60
2022/04/28 03:24:01;;;;;;;5.53;2.90;;;6.00;78.30;;;;;;5082848;28;20384;-60
2022/04/28 03:26:28;;;;;;;5.57;3.30;;;5.90;78.20;;;;;;5077592;28;20035;-59
2022/04/28 03:28:55;;;;;;;3.80;2.83;;;5.90;78.40;;;;;;5068684;28;20013;-60
2022/04/28 03:31:21;;;;;;;4.22;2.60;;;5.90;78.60;;;;;;5065838;28;20021;-60
2022/04/28 03:33:46;;;;;;;4.03;2.72;;;5.90;78.70;;;;;;5077159;28;20479;-59
2022/04/28 03:38:56;;;;;;;5.00;3.35;;;5.80;79.00;;;;;;5074935;28;20136;-60
2022/04/28 03:41:22;;;;;;;7.25;3.17;;;5.80;79.10;;;;;;5077143;28;20535;-61
2022/04/28 03:43:47;;;;;;;4.40;2.80;;;5.80;79.20;;;;;;5074911;28;20082;-59
2022/04/28 03:46:15;;;;;;;6.97;3.80;;;5.70;79.10;;;;;;5078748;28;20045;-59
2022/04/28 03:48:41;;;;;;;8.70;4.25;;;5.70;79.30;;;;;;5075496;28;20047;-60
2022/04/28 03:51:06;;;;;;;6.28;4.05;;;5.70;79.70;;;;;;5066580;28;20029;-59
2022/04/28 03:53:32;;;;;;;8.20;4.40;;;5.60;79.90;;;;;;5073270;28;20028;-59
2022/04/28 03:55:58;;;;;;;8.57;4.82;;;5.60;80.20;;;;;;5074183;28;20473;-59
2022/04/28 03:58:25;;;;;;;8.23;4.78;;;5.60;80.50;;;;;;5079090;28;20119;-59
2022/04/28 04:00:51;;;;;;;8.75;4.88;;;5.60;80.70;;;;;;5068781;28;20032;-59
2022/04/28 04:03:19;;;;;;;6.40;4.43;;;5.50;80.90;;;;;;5075916;28;20032;-59
2022/04/28 04:05:45;;;;;;;7.00;3.78;;;5.50;81.00;;;;;;5077340;28;20120;-60
2022/04/28 04:08:11;;;;;;;6.68;3.47;;;5.50;81.00;;;;;;5078799;28;20031;-59
2022/04/28 04:10:37;;;;;;;4.57;3.40;;;5.50;81.10;;;;;;5081747;28;20035;-59
2022/04/28 04:13:02;;;;;;;4.88;3.38;;;5.50;81.10;;;;;;5078028;28;20024;-59
2022/04/28 04:15:28;;;;;;;6.10;3.28;;;5.50;81.20;;;;;;5071611;28;20036;-60
2022/04/28 04:17:53;;;;;;;5.60;3.38;;;5.50;81.30;;;;;;5072285;28;20035;-59
2022/04/28 04:20:19;;;;;;;6.35;3.40;;;5.50;81.50;;;;;;5085584;28;20118;-59
2022/04/28 04:22:44;;;;;;;5.80;3.47;;;5.50;81.40;;;;;;5073207;28;20934;-59
2022/04/28 04:25:10;;;;;;;7.57;3.72;;;5.50;81.40;;;;;;5088309;28;20468;-60
2022/04/28 04:27:36;;;;;;;8.07;3.88;;;5.50;81.50;;;;;;5069007;28;20057;-59
2022/04/28 04:32:17;;;;;;;6.60;3.47;;;5.50;81.60;;;;;;5077904;28;20477;-59
2022/04/28 04:32:48;;;;;;;5.57;3.90;;;5.50;81.70;;;;;;5074407;28;20476;-59
2022/04/28 04:35:14;;;;;;;6.05;3.72;;;5.50;81.70;;;;;;5082860;28;20017;-59
2022/04/28 04:37:40;;;;;;;6.88;3.35;;;5.50;81.90;;;;;;5071494;28;20017;-59
2022/04/28 04:40:07;;;;;;;11.50;3.85;;;5.50;81.90;;;;;;5075554;28;20020;-59
2022/04/28 04:42:32;;;;;;;5.53;3.13;;;5.50;82.00;;;;;;5085131;28;20055;-59
2022/04/28 04:44:58;;;;;;;6.18;3.90;;;5.50;82.00;;;;;;5082394;28;20055;-59
2022/04/28 04:47:23;;;;;;;6.38;3.55;;;5.50;82.20;;;;;;5060601;28;20053;-59
2022/04/28 04:49:49;;;;;;;9.27;4.57;;;5.40;82.40;;;;;;5071077;28;20020;-59
2022/04/28 04:52:14;;;;;;;7.05;4.30;;;5.40;82.80;;;;;;5088063;28;20027;-59
2022/04/28 04:54:40;;;;;;;7.15;4.45;;;5.40;82.90;;;;;;5062820;28;20021;-59
2022/04/28 04:57:05;;;;;;;5.57;4.07;;;5.50;83.20;;;;;;5073875;28;20512;-59
2022/04/28 04:59:31;;;;;;;6.15;4.50;;;5.40;83.30;;;;;;5072232;28;20046;-59
2022/04/28 05:01:56;;;;;;;7.78;4.35;;;5.50;83.40;;;;;;5068463;28;20033;-59
2022/04/28 05:04:22;;;;;;;11.15;3.85;;;5.50;83.50;;;;;;5080821;28;20144;-59
2022/04/28 05:06:47;;;;;;;10.27;5.22;;;5.50;83.70;;;;;;5074003;28;20033;-59
2022/04/28 05:09:13;;;;;;;8.57;4.47;;;5.50;83.90;;;;;;5077629;28;20108;-59
2022/04/28 05:11:39;;;;;;;8.73;4.63;;;5.50;84.00;;;;;;5075181;28;20032;-59
2022/04/28 05:14:04;;;;;;;9.13;4.53;;;5.60;84.20;;;;;;5078944;28;20017;-59
2022/04/28 05:16:30;;;;;;;7.15;5.07;;;5.60;84.30;;;;;;5087327;28;20491;-58
2022/04/28 05:18:55;;;;;;;10.10;4.72;;;5.60;84.40;;;;;;5084202;28;20040;-59
2022/04/28 05:21:21;;;;;;;7.22;4.47;;;5.70;84.50;;;;;;5070628;28;20085;-59
2022/04/28 05:23:46;;;;;;;7.10;4.57;;;5.70;84.50;;;;;;5075929;28;20400;-59
2022/04/28 05:26:12;;;;;;;9.25;5.25;;;5.70;84.70;;;;;;5081454;28;20039;-59
2022/04/28 05:28:38;;;;;;;9.80;5.25;;;5.70;85.00;;;;;;5077313;28;20024;-59
2022/04/28 05:31:04;;;;;;;9.95;5.13;;;5.80;85.10;;;;;;5077782;28;20431;-59
2022/04/28 05:33:29;;;;;;;8.27;5.50;;;5.80;85.30;;;;;;5076224;28;20031;-59
2022/04/28 05:35:55;;;;;;;11.18;6.10;;;5.80;85.60;;;;;;5075914;28;20024;-59
2022/04/28 05:38:21;;;;;;;11.55;6.38;;;5.90;85.90;;;;;;5083061;28;20533;-59
2022/04/28 05:40:46;;;;;;;10.32;6.45;;;5.90;86.20;;;;;;5066020;28;20032;-59
2022/04/28 05:45:57;;;;;;;10.45;6.13;;;6.00;86.60;;;;;;5083282;28;20550;-60
2022/04/28 05:48:23;;;;;;;11.85;6.78;;;6.10;86.80;;;;;;5080023;28;20029;-59
2022/04/28 05:50:48;;;;;;;14.38;7.57;;;6.10;87.20;;;;;;5076063;28;20481;-59
2022/04/28 05:53:14;;;;;;;15.05;7.93;;;6.20;87.60;;;;;;5068765;28;20085;-59
2022/04/28 05:55:40;;;;;;;15.70;8.43;;;6.20;88.10;;;;;;5073960;28;20388;-59
2022/04/28 05:58:06;;;;;;;15.85;8.35;;;6.30;88.80;;;;;;5061765;28;21194;-59
2022/04/28 06:00:33;;;;;;;15.48;8.57;;;6.30;89.40;;;;;;5071812;28;20089;-59
2022/04/28 06:03:00;;;;;;;14.15;7.93;;;6.40;89.90;;;;;;5069768;28;20032;-59
2022/04/28 06:05:26;;;;;;;12.70;7.65;;;6.40;90.00;;;;;;5077361;28;20065;-59
2022/04/28 06:07:52;;;;;;;17.73;7.32;;;6.50;90.10;;;;;;5083624;28;20051;-59
2022/04/28 06:10:17;;;;;;;13.88;7.55;;;6.60;90.30;;;;;;5070782;28;20063;-59
2022/04/28 06:12:43;;;;;;;15.30;7.88;;;6.70;90.50;;;;;;5068647;28;20124;-59
2022/04/28 06:15:10;;;;;;;12.13;7.55;;;6.70;90.90;;;;;;5076924;28;20036;-59
2022/04/28 06:17:36;;;;;;;14.68;6.95;;;6.80;91.10;;;;;;5061575;28;20508;-59
2022/04/28 06:20:02;;;;;;;15.75;7.22;;;6.90;91.10;;;;;;5079860;28;20035;-59
2022/04/28 06:22:27;;;;;;;13.95;5.90;;;6.90;91.30;;;;;;5078237;28;20067;-59
2022/04/28 06:24:54;;;;;;;13.02;6.68;;;7.00;91.40;;;;;;5060608;28;20059;-59
2022/04/28 06:27:21;;;;;;;9.95;6.15;;;7.00;91.60;;;;;;5030854;28;20056;-59
2022/04/28 06:29:49;;;;;;;16.10;6.60;;;7.10;91.70;;;;;;5038807;28;20542;-59
2022/04/28 06:32:16;;;;;;;9.65;5.70;;;7.20;91.70;;;;;;5067393;28;20032;-59
2022/04/28 06:34:45;;;;;;;12.25;6.10;;;7.30;91.60;;;;;;5052200;28;20031;-59
2022/04/28 06:37:14;;;;;;;13.63;5.65;;;7.30;91.50;;;;;;5067901;28;20369;-59
2022/04/28 06:39:40;;;;;;;12.10;6.00;;;7.40;91.40;;;;;;5052272;28;20032;-59
2022/04/28 06:42:06;;;;;;;11.05;6.05;;;7.50;91.40;;;;;;5052181;28;20041;-59
2022/04/28 06:44:31;;;;;;;11.68;6.03;;;7.50;91.30;;;;;;5052441;28;20020;-59
2022/04/28 06:46:57;;;;;;;11.65;5.78;;;7.60;91.20;;;;;;5051127;28;20146;-59
2022/04/28 06:49:23;;;;;;;9.77;5.68;;;7.70;91.20;;;;;;5060042;28;20029;-59
2022/04/28 06:51:48;;;;;;;12.80;5.85;;;7.80;91.00;;;;;;5051190;28;20139;-59
2022/04/28 06:54:14;;;;;;;11.48;6.60;;;7.80;90.80;;;;;;5051815;28;20366;-59
2022/04/28 06:56:43;;;;;;;20.00;8.30;;;7.90;90.60;;;;;;5051904;28;20487;-59
2022/04/28 06:59:08;;;;;;;9.10;5.65;;;8.00;90.40;;;;;;5051499;28;20120;-59
2022/04/28 07:01:34;;;;;;;9.35;4.65;;;8.00;90.10;;;;;;5050392;28;20108;-59
2022/04/28 07:03:59;;;;;;;11.90;4.93;;;8.10;90.00;;;;;;5050202;28;20480;-59
2022/04/28 07:06:25;;;;;;;9.30;5.10;;;8.10;89.50;;;;;;5050449;28;20571;-59
2022/04/28 07:08:50;;;;;;;7.20;4.22;;;8.20;89.30;;;;;;5050353;28;20029;-59
2022/04/28 07:11:16;;;;;;;11.48;5.00;;;8.30;89.10;;;;;;5054683;28;20013;-58
2022/04/28 07:13:42;;;;;;;12.65;5.15;;;8.40;88.70;;;;;;5050702;28;20029;-59
2022/04/28 07:16:07;;;;;;;11.35;5.18;;;8.40;88.20;;;;;;5067154;28;20515;-59
2022/04/28 07:18:33;;;;;;;8.95;4.80;;;8.50;87.40;;;;;;5051505;28;20097;-59
2022/04/28 07:21:03;;;;;;;11.25;4.38;;;8.60;87.10;;;;;;5051798;28;20392;-59
2022/04/28 07:23:29;;;;;;;12.05;4.35;;;8.60;85.80;;;;;;5051867;28;20029;-59
2022/04/28 07:25:55;;;;;;;6.07;3.67;;;8.70;84.80;;;;;;5051753;28;20091;-59
2022/04/28 07:28:20;;;;;;;6.30;3.10;;;8.80;84.50;;;;;;5049955;28;20034;-59
2022/04/28 07:30:46;;;;;;;11.52;3.65;;;8.80;84.70;;;;;;5050651;28;20553;-59
2022/04/28 07:33:11;;;;;;;6.35;3.30;;;8.90;83.70;;;;;;5051631;28;20388;-59
2022/04/28 07:35:37;;;;;;;8.38;3.40;;;8.90;83.20;;;;;;5067102;28;20036;-59
2022/04/28 07:38:04;;;;;;;7.60;3.20;;;9.10;82.90;;;;;;5051601;28;20067;-59
2022/04/28 07:40:30;;;;;;;9.68;3.17;;;9.10;82.20;;;;;;5067066;28;20481;-59
2022/04/28 07:42:56;;;;;;;12.25;3.85;;;9.20;81.30;;;;;;5050454;28;20033;-59
2022/04/28 07:45:25;;;;;;;15.07;3.83;;;9.30;81.10;;;;;;5067044;28;20538;-59
2022/04/28 07:47:51;;;;;;;7.38;3.40;;;9.30;80.90;;;;;;5051461;28;20029;-59
2022/04/28 07:50:16;;;;;;;8.80;3.53;;;9.40;80.70;;;;;;5051622;28;20486;-59
2022/04/28 07:52:43;;;;;;;12.43;4.35;;;9.50;80.60;;;;;;5051523;28;20029;-59
2022/04/28 07:55:10;;;;;;;7.78;3.70;;;9.60;80.30;;;;;;5051353;28;20021;-60
2022/04/28 07:57:36;;;;;;;9.90;3.63;;;9.60;80.70;;;;;;5051120;28;20040;-59
2022/04/28 08:00:03;;;;;;;6.80;4.00;;;9.70;79.90;;;;;;5053253;28;20021;-59
2022/04/28 08:02:29;;;;;;;7.50;2.83;;;9.70;79.70;;;;;;5053877;28;20473;-59
2022/04/28 08:04:55;;;;;;;8.40;3.40;;;9.80;79.50;;;;;;5055216;28;20032;-59
2022/04/28 08:07:21;;;;;;;7.57;3.70;;;9.90;79.20;;;;;;5054725;28;20017;-59
2022/04/28 08:09:47;;;;;;;10.10;4.00;;;10.00;78.90;;;;;;5053893;28;20040;-59
2022/04/28 08:12:12;;;;;;;8.52;3.10;;;10.10;78.40;;;;;;5054983;28;20469;-59
2022/04/28 08:14:39;;;;;;;11.00;3.15;;;10.10;77.90;;;;;;5054804;28;20037;-59
2022/04/28 08:17:05;;;;;;;6.63;3.45;;;10.20;77.70;;;;;;5054839;28;20039;-59
2022/04/28 08:19:32;;;;;;;8.43;3.22;;;10.30;77.30;;;;;;5054964;28;20037;-59
2022/04/28 08:21:58;;;;;;;7.55;2.60;;;10.30;77.30;;;;;;5054536;28;20028;-59
2022/04/28 08:24:23;;;;;;;7.78;3.03;;;10.40;77.30;;;;;;5054903;28;20029;-59
2022/04/28 08:26:49;;;;;;;7.07;3.13;;;10.50;77.00;;;;;;5054832;28;20025;-59
2022/04/28 08:29:15;;;;;;;6.78;2.60;;;10.60;76.80;;;;;;5053955;28;20109;-59
2022/04/28 08:31:44;;;;;;;6.63;2.85;;;10.70;76.60;;;;;;5070087;28;20107;-59
2022/04/28 08:34:14;;;;;;;7.13;2.67;;;10.80;76.60;;;;;;5054530;28;20029;-59
2022/04/28 08:36:40;;;;;;;6.93;2.78;;;10.90;76.30;;;;;;5054489;28;20287;-59
2022/04/28 08:39:07;;;;;;;10.57;3.75;;;10.90;76.00;;;;;;5054686;28;20040;-59
2022/04/28 08:41:35;;;;;;;6.38;2.60;;;11.00;75.80;;;;;;5054369;28;20044;-59
2022/04/28 08:44:04;;;;;;;6.57;2.55;;;11.10;75.60;;;;;;5054176;28;20514;-59
2022/04/28 08:49:26;;;;;;;6.00;2.65;;;11.20;74.90;;;;;;5052131;28;20059;-59
2022/04/28 08:51:54;;;;;;;6.78;2.08;;;11.30;74.30;;;;;;5068579;28;20033;-59
2022/04/28 08:54:21;;;;;;;8.93;3.47;;;11.40;74.10;;;;;;5054065;28;20013;-59
2022/04/28 08:56:48;;;;;;;9.15;3.10;;;11.50;73.50;;;;;;5054021;28;20017;-59
2022/04/28 08:59:14;;;;;;;12.57;3.47;;;11.60;72.70;;;;;;5054077;28;20396;-59
2022/04/28 09:01:40;;;;;;;8.63;3.30;;;11.60;72.00;;;;;;5069245;28;20024;-59
2022/04/28 09:04:07;;;;;;;7.10;2.97;;;11.70;72.30;;;;;;5068970;28;20507;-59
2022/04/28 09:06:35;;;;;;;6.53;2.55;;;11.70;72.20;;;;;;5054174;28;20028;-59
2022/04/28 09:09:04;;;;;;;7.05;3.25;;;11.80;72.20;;;;;;5053806;28;20017;-59
2022/04/28 09:11:32;;;;;;;6.03;2.45;;;11.90;72.00;;;;;;5052188;28;20020;-59
2022/04/28 09:14:12;;;;;;;4.78;2.00;;;12.00;71.60;;;;;;5053373;28;20029;-59
2022/04/28 09:16:58;;;;;;;5.63;2.40;;;12.10;70.90;;;;;;5053223;28;20025;-59
2022/04/28 09:19:35;;;;;;;6.05;2.17;;;12.20;71.30;;;;;;5053282;28;20409;-59
2022/04/28 09:22:08;;;;;;;4.32;1.98;;;12.20;70.40;;;;;;5053657;28;20033;-59
2022/04/28 09:24:34;;;;;;;4.88;2.20;;;12.40;70.30;;;;;;5069155;28;20554;-59
2022/04/28 09:27:00;;;;;;;7.22;2.58;;;12.40;70.00;;;;;;5053714;28;20033;-59
2022/04/28 09:29:30;;;;;;;7.10;2.72;;;12.50;69.60;;;;;;5053639;28;20033;-59
2022/04/28 09:31:56;;;;;;;7.25;3.17;;;12.60;69.00;;;;;;5053505;28;20021;-59
2022/04/28 09:34:23;;;;;;;5.70;2.33;;;12.60;68.50;;;;;;5053219;28;20090;-59
2022/04/28 09:36:50;;;;;;;6.70;2.10;;;12.60;68.50;;;;;;5053741;28;20032;-59
2022/04/28 09:44:52;;;;;;;6.90;3.13;;;12.90;68.20;;;;;;5052205;28;20044;-59
2022/04/28 09:47:22;;;;;;;7.80;3.10;;;12.90;68.00;;;;;;5053158;28;20025;-59
2022/04/28 09:49:52;;;;;;;;;;;13.00;68.10;;;;;;5053481;28;20158;-59
2022/04/28 09:52:26;;;;;;;5.43;2.85;;;13.00;68.30;;;;;;5052158;28;20041;-59
2022/04/28 09:54:53;;;;;;;5.88;2.75;;;13.10;68.10;;;;;;5052134;28;20028;-59
2022/04/28 09:57:20;;;;;;;6.85;3.03;;;13.20;67.80;;;;;;5052874;28;20044;-59
2022/04/28 09:59:47;;;;;;;9.05;2.90;;;13.30;67.40;;;;;;5053057;28;20025;-59
2022/04/28 10:02:17;;;;;;;6.93;2.80;;;13.40;67.30;;;;;;5051848;28;20061;-59
2022/04/28 10:04:44;;;;;;;7.18;3.08;;;13.50;66.90;;;;;;5052860;28;20021;-60
2022/04/28 10:07:10;;;;;;;4.82;2.42;;;13.50;66.30;;;;;;5051943;28;20103;-59
2022/04/28 10:09:36;;;;;;;7.60;3.13;;;13.70;66.10;;;;;;5051586;28;20488;-59
2022/04/28 10:12:05;;;;;;;7.65;3.10;;;13.70;65.10;;;;;;5051293;28;20036;-59
2022/04/28 10:14:34;;;;;;;7.60;4.07;;;13.70;64.00;;;;;;5049993;28;20021;-60
2022/04/28 10:17:01;;;;;;;7.07;3.10;;;13.80;64.00;;;;;;5048284;28;20025;-59
2022/04/28 10:19:38;;;;;;;7.32;2.65;;;13.90;64.30;;;;;;5050871;28;20057;-59
2022/04/28 10:22:16;;;;;;;7.22;3.40;;;14.00;64.20;;;;;;5051674;28;20033;-59
2022/04/28 10:33:05;;;;;;;8.82;3.20;;;14.60;62.10;;;;;;5050794;28;20040;-59
2022/04/28 10:35:37;;;;;;;5.63;2.72;;;14.70;62.20;;;;;;5050599;28;20021;-60
2022/04/28 10:38:24;;;;;;;4.32;2.35;;;14.90;61.70;;;;;;5050730;28;20017;-59
2022/04/28 10:40:59;;;;;;;5.13;2.10;;;15.10;60.90;;;;;;5050686;28;20025;-59
2022/04/28 10:43:33;;;;;;;4.65;2.60;;;15.30;60.60;;;;;;5051899;28;20554;-59
2022/04/28 10:46:08;;;;;;;4.68;1.95;;;15.50;60.40;;;;;;5052447;28;20420;-59
2022/04/28 10:48:42;;;;;;;6.25;2.58;;;15.60;60.60;;;;;;5067712;28;20021;-59
2022/04/28 10:51:15;;;;;;;3.78;2.00;;;15.80;60.30;;;;;;5051948;28;20540;-60
2022/04/28 10:53:56;;;;;;;4.10;2.10;;;15.90;59.90;;;;;;5052000;28;20032;-60
2022/04/28 10:56:22;;;;;;;4.82;2.25;;;16.10;59.50;;;;;;5052325;28;20040;-59
2022/04/28 10:58:48;;;;;;;6.55;2.40;;;16.30;59.10;;;;;;5052108;28;20032;-59
2022/04/28 11:01:31;;;;;;;7.22;2.78;;;16.40;59.00;;;;;;5051991;28;20039;-59
2022/04/28 11:03:59;;;;;;;6.65;3.72;;;16.50;57.40;;;;;;5051873;28;20035;-59
2022/04/28 11:06:37;;;;;;;6.97;2.83;;;16.60;56.40;;;;;;5051839;28;20017;-59
2022/04/28 11:09:04;;;;;;;7.00;2.80;;;16.70;56.20;;;;;;5050886;28;20104;-59
2022/04/28 11:11:49;;;;;;;5.30;2.67;;;16.90;56.10;;;;;;5051852;28;20021;-59
2022/04/28 11:14:15;;;;;;;6.50;2.75;;;17.10;55.20;;;;;;5050803;28;20480;-59
2022/04/28 11:16:42;;;;;;;6.32;3.05;;;17.20;55.10;;;;;;5051876;28;20113;-60
2022/04/28 11:19:09;;;;;;;5.80;2.10;;;17.40;54.80;;;;;;5050403;28;20120;-59
2022/04/28 11:21:38;;;;;;;6.15;2.40;;;17.50;55.00;;;;;;5049754;28;20021;-59
2022/04/28 11:24:04;;;;;;;;;;;17.80;55.00;;;;;;5050855;28;20025;-59
2022/04/28 11:26:30;;;;;;;6.07;1.95;;;18.00;55.10;;;;;;5051728;28;20021;-59
2022/04/28 11:28:55;;;;;;;6.88;2.10;;;18.20;54.80;;;;;;5050387;28;20395;-59
2022/04/28 11:31:21;;;;;;;3.95;1.88;;;18.40;54.30;;;;;;5048344;28;20086;-59
2022/04/28 11:33:49;;;;;;;5.03;1.98;;;18.60;53.90;;;;;;5051657;28;20036;-59
2022/04/28 11:36:16;;;;;;;7.85;3.10;;;18.90;53.30;;;;;;5053852;28;20033;-59
2022/04/28 11:38:50;;;;;;;6.47;2.70;;;19.00;51.90;;;;;;5055075;28;20052;-59
2022/04/28 11:41:16;;;;;;;5.65;2.22;;;19.20;51.70;;;;;;5059288;28;20029;-59
2022/04/28 11:43:41;;;;;;;5.18;2.30;;;19.30;51.60;;;;;;5053235;28;20040;-59
2022/04/28 11:46:07;;;;;;;5.50;2.47;;;19.40;51.40;;;;;;5053967;28;20369;-59
2022/04/28 11:48:35;;;;;;;4.25;2.22;;;19.60;51.40;;;;;;5055096;28;20107;-60
2022/04/28 11:51:02;;;;;;;4.00;2.28;;;19.90;51.30;;;;;;5055507;28;20096;-59
2022/04/28 11:53:42;;;;;;;4.93;2.00;;;20.10;50.10;;;;;;5059409;28;20039;-59
2022/04/28 11:56:19;;;;;;;4.53;1.88;;;20.40;50.10;;;;;;5055302;28;20067;-59
2022/04/28 11:58:52;;;;;;;5.15;2.30;;;20.70;50.00;;;;;;5055485;28;20108;-59
2022/04/28 12:01:22;;;;;;;6.47;2.42;;;20.90;49.00;;;;;;5054414;28;20381;-59
2022/04/28 12:03:55;;;;;;;8.77;2.78;;;21.00;48.20;;;;;;5055165;28;20037;-59
2022/04/28 12:06:22;;;;;;;5.28;1.80;;;21.20;47.50;;;;;;5053956;28;20020;-59
2022/04/28 12:08:59;;;;;;;7.38;3.63;;;21.40;47.80;;;;;;5051905;28;20025;-60
2022/04/28 12:14:24;;;;;;;8.32;2.80;;;21.30;45.30;;;;;;5055203;28;20048;-59
2022/04/28 12:19:48;;;;;;;6.85;2.78;;;21.60;46.40;;;;;;5054432;28;20059;-59
2022/04/28 12:22:23;;;;;;;5.00;2.05;;;21.90;46.20;;;;;;5054686;28;20040;-60
2022/04/28 12:24:49;;;;;;;3.45;1.52;;;22.30;45.90;;;;;;5054070;28;20036;-59
2022/04/28 12:27:15;;;;;;;6.93;2.35;;;22.60;45.90;;;;;;5054922;28;20029;-60
2022/04/28 12:29:55;;;;;;;6.13;2.47;;;22.80;45.50;;;;;;5054751;28;20411;-59
2022/04/28 12:32:22;;;;;;;10.88;3.42;;;22.90;44.30;;;;;;5054555;28;20116;-59
2022/04/28 12:35:03;;;;;;;10.55;3.75;;;22.90;44.20;;;;;;5054600;28;20021;-59
2022/04/28 12:37:29;;;;;;;6.88;3.65;;;23.00;44.40;;;;;;5069913;28;20060;-59
2022/04/28 12:39:59;;;;;;;6.43;2.83;;;22.90;42.30;;;;;;5054746;28;20061;-60
2022/04/28 12:42:44;;;;;;;9.90;2.92;;;22.70;43.00;;;;;;5054567;28;20039;-59
2022/04/28 12:45:10;;;;;;;6.72;2.95;;;22.90;43.00;;;;;;5054110;28;20429;-60
2022/04/28 12:47:38;;;;;;;4.60;1.80;;;23.00;42.00;;;;;;5054399;28;20029;-60
2022/04/28 12:50:19;;;;;;;6.68;2.45;;;23.10;42.40;;;;;;5054267;28;20029;-59
2022/04/28 12:52:45;;;;;;;8.57;2.42;;;23.40;42.60;;;;;;5054638;28;20029;-60
2022/04/28 12:55:10;;;;;;;7.57;2.95;;;23.50;42.80;;;;;;5054508;28;20032;-59
2022/04/28 12:57:36;;;;;;;4.45;2.47;;;23.70;42.10;;;;;;5054300;28;20036;-59
2022/04/28 13:00:05;;;;;;;3.13;1.65;;;23.80;42.00;;;;;;5053993;28;20040;-60
2022/04/28 13:02:32;;;;;;;4.50;2.17;;;24.10;42.50;;;;;;5069683;28;20125;-59
2022/04/28 13:05:14;;;;;;;4.13;2.17;;;24.30;42.10;;;;;;5054113;28;20049;-60
2022/04/28 13:07:41;;;;;;;6.53;3.15;;;24.50;41.20;;;;;;5054113;28;20020;-59
2022/04/28 13:10:08;;;;;;;7.60;2.88;;;24.50;39.60;;;;;;5053856;28;20029;-59
2022/04/28 13:12:34;;;;;;;4.35;2.13;;;24.50;40.10;;;;;;5069386;28;20056;-60
2022/04/28 13:15:02;;;;;;;4.63;2.33;;;24.40;39.90;;;;;;5053485;28;20113;-59
2022/04/28 13:17:28;;;;;;;6.53;2.75;;;24.50;39.90;;;;;;5053878;28;20083;-60
2022/04/28 13:19:54;;;;;;;7.43;2.70;;;24.50;39.50;;;;;;5066682;28;20025;-60
2022/04/28 13:22:19;;;;;;;6.57;3.20;;;24.80;39.40;;;;;;5052818;28;20029;-60
2022/04/28 13:24:45;;;;;;;6.72;3.15;;;25.00;39.40;;;;;;5052681;28;20029;-60
2022/04/28 13:27:11;;;;;;;4.97;2.80;;;25.10;39.30;;;;;;5053624;28;20532;-60
2022/04/28 13:29:37;;;;;;;5.32;2.47;;;25.00;39.60;;;;;;5053838;28;20473;-59
2022/04/28 13:32:03;;;;;;;4.95;2.17;;;25.10;40.10;;;;;;5053388;28;20021;-60